Portada
METAR-TAF:

METAR-TAF

Aeroports :

Adrar, Algèria

latitud: 27-53N, longitud: 000-17W, altitud: 263 m

Observació

L'informe es va fer fa 1 hora i 14 minuts, a les 18:00 UTC
Vent 24 kt del Oest/Nord-Oest
Temperatura 38°C
Humitat 12%
Pressió 1013 hPa
Visibilitat: 4000 m
torb baixa de sorra

METAR: DAUA 061800Z 30024KT 4000 DRSA NSC 38/04 Q1013

Hora: 20:14 (19:14 UTC)

Pronòstic

L'informe es va fer fa 2 hores i 14 minuts, a les 17:00 UTC
Pronòstic vàlid del 06 a les 18 UTC al 07 a les 18 UTC
Vent 28 kt del Oest/Nord-Oest
Visibilitat: 3000 m
torb baixa de sorra
Evolucionant progressivament
l' 06 a les 19 UTC al 06 a les 22 UTC
Vent 18 kt del Oest/Nord-Oest
Visibilitat: 6000 m

TAF: DAUA 061700Z 0618/0718 30028KT 3000 DRSA NSC BECMG 0619/0622 30018KT 6000 NSW

Observacions i pronòstics meteorològics de més de 4000 aeroports (METAR i TAF).

Les estacions disponibles són els punts grocs i vermells al mapa.

Posi el ratolí al punt desitjat per veure el nom de l'estació.

Feu clic per veure les observacions i els pronòstics meteorològics.

Per canviar el mapa: feu clic els botons verds amb una creu de color negre per apropar; al botó verd amb un guió per allunyar la imatge; o en les fletxes verdes per a mapes adjacents.


METAR-TAF: